Azalea, OR

11:22 AM PDT on April 26, 2015 (GMT -0700)
Glendale, Oregon | | Change Station
CLOSE
Current Station
Personal Weather Station
Location: Glendale, OR
Elevation: 1403 ft
Nearby Weather Stations

Elev 1403 ft 42.74 °N, 123.43 °W | Updated 14 minutes ago

Overcast
Overcast
55.3 °F
Feels Like 55.3 °F
N
2.0
Wind Variable Wind from NE
Gusts 2.0 mph

Today
High -- | Low -- °F
--% Chance of Precip.
Yesterday
High -- | Low -- °F
Precip. -- in
6:14 AM 8:07 PM
First Quarter, 57% visible
Pressure 30.24 in
Visibility 10.0 miles
Clouds Mostly Cloudy 5500 ft
Overcast 7000 ft
Dew Point 44 °F
Humidity 66%
Rainfall 0.00 in
Snow Depth Not available.
UV 2 out of 12
Pollen 8.60 out of 12
Air Quality Not available.
Flu Activity Sporadic
METAR KRBG 261753Z AUTO 21004KT 10SM BKN055 OVC070 12/07 A3024 RMK AO2 SLP240 T01220067 10122 20050 51011

More Conditions Fewer Conditions

Pressure 30.24 in
Visibility 10.0 miles
Clouds Mostly Cloudy 5500 ft
Overcast 7000 ft
Dew Point 44 °F
Humidity 66%
Rainfall 0.00 in
Snow Depth Not available.
UV 2 out of 12
Pollen 8.60 out of 12
Air Quality Not available.
Flu Activity Sporadic
METAR KRBG 261753Z AUTO 21004KT 10SM BKN055 OVC070 12/07 A3024 RMK AO2 SLP240 T01220067 10122 20050 51011

More Conditions Fewer Conditions

The full scope of the disaster following a powerful 7.8-magnitude earthquake in Nepal may not come into view for days, but global charities are already sending emergency aid. Click to see how you can help.

10-Day Weather Forecast

Almanac

Astronomy

Apr. 26, 2015 Rise Set
Actual Time
Civil Twilight
Nautical Twilight
Astronomical Twilight
Moon
Length of Visible Light
Length of Day
Tomorrow will be .
, % of the Moon is Illuminated

Today's Extremes

State Highs State Lows

Community

WunderPhotos

Upload Photos

1,817,082 photos uploaded!

WunderBlogs® & News

Nearby

Air Quality

  Air Quality AQ Index Pollutant
Not available.

Snow Depth

Station Depth Elevation

Earthquake Activity

City Distance Mag. Time & Date
Minimum magnitude displayed is 2.5.

Coastal Water Temperatures

Place Temperature

Stations

Nearby Weather Stations

Station Location Temp. Windchill Dew Point Humidity Wind Precip. Elev Updated Type